Time;durP1;ratioP1;P1;durP2;ratioP2;P2;SDS_P1;SDS_P2;PMS_P1;PMS_P2;Temp;Humidity;BMP_temperature;BMP_pressure;BME280_temperature;BME280_humidity;BME280_pressure;Samples;Min_cycle;Max_cycle;Signal;HPM_P1;HPM_P2
2022/06/22 00:01:02;;;;;;;19.30;10.70;;;;;;;17.95;100.00;95202.72;5049151;28;20036;-79
2022/06/22 00:03:28;;;;;;;18.25;10.77;;;;;;;17.98;100.00;95204.75;5050067;28;20053;-79
2022/06/22 00:05:55;;;;;;;17.20;9.95;;;;;;;17.90;100.00;95200.22;5031203;28;20555;-79
2022/06/22 00:08:34;;;;;;;18.00;10.20;;;;;;;17.89;100.00;95202.09;5044683;28;20067;-79
2022/06/22 00:11:15;;;;;;;14.57;9.55;;;;;;;17.96;100.00;95194.41;5040058;28;20044;-79
2022/06/22 00:13:51;;;;;;;17.67;9.95;;;;;;;17.94;100.00;95193.97;5049522;28;20059;-78
2022/06/22 00:16:29;;;;;;;16.45;10.05;;;;;;;17.91;100.00;95201.81;5032135;28;20041;-79
2022/06/22 00:18:55;;;;;;;21.20;10.05;;;;;;;17.92;100.00;95203.38;5046114;28;20110;-78
2022/06/22 00:21:31;;;;;;;15.73;11.10;;;;;;;17.91;100.00;95185.84;5031827;28;20033;-78
2022/06/22 00:24:00;;;;;;;15.90;10.43;;;;;;;18.00;100.00;95167.91;5031686;28;20048;-78
2022/06/22 00:26:36;;;;;;;16.45;10.88;;;;;;;17.90;100.00;95168.28;5030432;28;20044;-79
2022/06/22 00:29:16;;;;;;;19.20;10.75;;;;;;;17.86;100.00;95188.66;5048479;28;20052;-80
2022/06/22 00:31:57;;;;;;;17.50;10.52;;;;;;;17.78;100.00;95167.09;5038082;28;20098;-80
2022/06/22 00:34:27;;;;;;;19.05;10.32;;;;;;;17.69;100.00;95163.72;5049881;28;20073;-79
2022/06/22 00:37:03;;;;;;;21.05;11.00;;;;;;;17.54;100.00;95141.13;5039429;28;20064;-79
2022/06/22 00:39:29;;;;;;;28.25;11.15;;;;;;;17.42;100.00;95144.47;5047508;28;20155;-78
2022/06/22 00:41:58;;;;;;;15.48;10.63;;;;;;;17.38;100.00;95127.59;5049098;28;20037;-79
2022/06/22 00:44:29;;;;;;;17.95;11.57;;;;;;;17.34;100.00;95120.59;5050040;28;20074;-79
2022/06/22 00:47:07;;;;;;;18.80;11.35;;;;;;;17.30;100.00;95115.13;5043289;28;20037;-78
2022/06/22 00:49:35;;;;;;;16.60;11.35;;;;;;;17.36;100.00;95118.41;5048903;28;20041;-79
2022/06/22 00:52:05;;;;;;;18.50;11.68;;;;;;;17.29;100.00;95118.91;5049850;28;20091;-79
2022/06/22 00:54:33;;;;;;;18.40;11.75;;;;;;;17.27;100.00;95110.47;5030840;28;20051;-79
2022/06/22 00:57:27;;;;;;;20.42;11.68;;;;;;;17.35;100.00;95101.63;5046828;28;20048;-79
2022/06/22 00:59:59;;;;;;;21.58;11.38;;;;;;;17.31;100.00;95111.34;5049203;28;20493;-79
2022/06/22 01:02:39;;;;;;;24.77;12.27;;;;;;;17.23;100.00;95093.59;5053550;28;20052;-79
2022/06/22 01:05:24;;;;;;;17.80;11.70;;;;;;;17.23;100.00;95093.59;5052225;28;20049;-78
2022/06/22 01:08:15;;;;;;;20.45;12.15;;;;;;;17.12;100.00;95093.16;5035585;28;20036;-78
2022/06/22 01:11:06;;;;;;;26.77;13.40;;;;;;;17.06;100.00;95100.53;5042685;28;20052;-79
2022/06/22 01:13:40;;;;;;;20.40;12.40;;;;;;;17.09;100.00;95107.09;5035594;28;20568;-78
2022/06/22 01:16:28;;;;;;;22.45;12.70;;;;;;;17.02;100.00;95089.00;5035643;28;20148;-79
2022/06/22 01:18:59;;;;;;;20.92;12.32;;;;;;;16.99;100.00;95094.97;5037382;28;20523;-78
2022/06/22 01:21:34;;;;;;;20.33;12.00;;;;;;;16.96;100.00;95080.41;5034953;28;20693;-78
2022/06/22 01:24:24;;;;;;;22.33;12.82;;;;;;;17.00;100.00;95083.22;5048309;28;20045;-78
2022/06/22 01:27:23;;;;;;;20.27;12.70;;;;;;;16.96;100.00;95084.97;5040979;28;20465;-79
2022/06/22 01:29:53;;;;;;;21.88;12.70;;;;;;;16.91;100.00;95085.13;5051751;28;20040;-79
2022/06/22 01:32:26;;;;;;;21.05;12.82;;;;;;;16.91;100.00;95082.47;5053124;28;20044;-79
2022/06/22 01:34:57;;;;;;;21.70;12.85;;;;;;;16.87;100.00;95081.56;5035917;28;20048;-79
2022/06/22 01:37:26;;;;;;;25.33;12.77;;;;;;;16.80;100.00;95077.50;5025460;28;20073;-78
2022/06/22 01:40:02;;;;;;;21.38;12.63;;;;;;;16.80;100.00;95061.56;5031560;28;20033;-79
2022/06/22 01:42:40;;;;;;;23.35;12.95;;;;;;;16.75;100.00;95053.78;5040882;28;20566;-78
2022/06/22 01:45:13;;;;;;;20.70;12.70;;;;;;;16.74;100.00;95052.22;5051525;28;20434;-79
2022/06/22 01:47:44;;;;;;;24.25;13.10;;;;;;;16.75;100.00;95064.41;5050485;28;20037;-79
2022/06/22 01:50:21;;;;;;;18.10;12.75;;;;;;;16.71;100.00;95047.53;5047233;28;20518;-78
2022/06/22 01:52:52;;;;;;;19.27;12.60;;;;;;;16.71;100.00;95042.22;5051931;28;20139;-79
2022/06/22 01:55:26;;;;;;;23.50;13.00;;;;;;;16.72;100.00;95054.41;5033083;28;20067;-79
2022/06/22 01:58:01;;;;;;;23.90;12.35;;;;;;;16.69;100.00;95039.09;5041309;28;20052;-79
2022/06/22 02:00:27;;;;;;;20.35;11.25;;;;;;;16.71;100.00;95041.47;5034168;28;20424;-79
2022/06/22 02:03:09;;;;;;;18.83;11.75;;;;;;;16.73;100.00;95036.59;5051520;28;20064;-80
2022/06/22 02:05:41;;;;;;;20.20;12.05;;;;;;;16.70;100.00;95029.25;5048012;28;20045;-78
2022/06/22 02:08:09;;;;;;;17.98;12.15;;;;;;;16.66;100.00;95029.09;5041708;28;20040;-77
2022/06/22 02:10:46;;;;;;;17.15;11.55;;;;;;;16.71;100.00;95023.63;5027390;28;20495;-78
2022/06/22 02:13:34;;;;;;;22.92;11.77;;;;;;;16.67;100.00;95030.69;5032539;28;20040;-79
2022/06/22 02:16:26;;;;;;;19.27;11.57;;;;;;;16.62;100.00;95030.84;5049008;28;20110;-79
2022/06/22 02:19:10;;;;;;;20.15;11.10;;;;;;;16.65;100.00;95032.88;5048245;28;20059;-79
2022/06/22 02:21:38;;;;;;;23.23;10.70;;;;;;;16.65;100.00;95027.56;5051987;28;20766;-78
2022/06/22 02:24:09;;;;;;;19.40;11.05;;;;;;;16.70;100.00;95035.34;5046765;28;20538;-79
2022/06/22 02:26:57;;;;;;;19.42;10.15;;;;;;;16.68;100.00;95048.19;5046866;28;20045;-79
2022/06/22 02:29:27;;;;;;;17.98;10.52;;;;;;;16.66;100.00;95039.75;5056158;28;20045;-79
2022/06/22 02:31:56;;;;;;;18.63;10.25;;;;;;;16.69;100.00;95055.03;5033852;28;20048;-79
2022/06/22 02:34:24;;;;;;;17.83;10.70;;;;;;;16.69;100.00;95055.03;5051923;28;20537;-78
2022/06/22 02:36:53;;;;;;;18.25;10.20;;;;;;;16.65;100.00;95043.50;5055164;28;20044;-78
2022/06/22 02:39:20;;;;;;;16.48;9.68;;;;;;;16.61;100.00;95048.66;5039132;28;20128;-78
2022/06/22 02:44:35;;;;;;;17.05;10.20;;;;;;;16.63;100.00;95030.53;5046548;28;20044;-79
2022/06/22 02:47:18;;;;;;;18.13;10.38;;;;;;;16.61;100.00;95030.06;5062156;28;20051;-78
2022/06/22 02:49:50;;;;;;;17.35;9.63;;;;;;;16.61;100.00;95026.66;5032028;28;20045;-78
2022/06/22 02:52:16;;;;;;;22.10;10.38;;;;;;;16.63;100.00;95024.44;5049250;28;20037;-78
2022/06/22 02:54:53;;;;;;;16.17;9.95;;;;;;;16.57;100.00;95025.72;5055852;28;20401;-78
2022/06/22 02:57:43;;;;;;;22.40;10.77;;;;;;;16.62;100.00;95022.88;5034513;28;20044;-78
2022/06/22 03:00:10;;;;;;;15.38;9.55;;;;;;;16.59;100.00;95023.53;5065647;28;20040;-78
2022/06/22 03:02:36;;;;;;;19.35;10.40;;;;;;;16.56;100.00;95024.16;5036736;28;20106;-78
2022/06/22 03:05:05;;;;;;;20.60;10.50;;;;;;;16.56;100.00;95018.84;5051844;28;20068;-79
2022/06/22 03:07:34;;;;;;;17.08;9.95;;;;;;;16.50;100.00;95014.81;5030744;28;20050;-78
2022/06/22 03:10:02;;;;;;;20.30;10.23;;;;;;;16.52;100.00;95010.75;5034113;28;20426;-77
2022/06/22 03:12:28;;;;;;;15.27;9.50;;;;;;;16.50;100.00;95009.50;5052952;28;20538;-78
2022/06/22 03:15:07;;;;;;;21.05;10.32;;;;;;;16.48;100.00;95006.38;5062371;28;20052;-79
2022/06/22 03:17:38;;;;;;;20.83;10.20;;;;;;;16.43;100.00;95016.09;5050356;28;20033;-77
2022/06/22 03:20:11;;;;;;;16.60;10.02;;;;;;;16.40;100.00;95016.72;5054223;28;20414;-77
2022/06/22 03:22:43;;;;;;;19.17;9.68;;;;;;;16.40;100.00;95005.31;5051914;28;20048;-78
2022/06/22 03:25:35;;;;;;;18.08;10.43;;;;;;;16.55;100.00;95011.97;5050703;28;20127;-78
2022/06/22 03:28:11;;;;;;;17.30;9.25;;;;;;;16.53;100.00;95014.19;5037135;28;20051;-78
2022/06/22 03:30:56;;;;;;;18.88;9.20;;;;;;;16.56;100.00;95008.22;5037286;28;20041;-79
2022/06/22 03:33:26;;;;;;;;;;;;;;;16.52;100.00;95016.06;5046867;28;20507;-78
2022/06/22 03:35:59;;;;;;;19.60;9.52;;;;;;;16.56;100.00;95014.31;5035082;28;20326;-79
2022/06/22 03:38:32;;;;;;;15.85;8.48;;;;;;;16.63;100.00;95024.44;5042295;28;20052;-79
2022/06/22 03:41:02;;;;;;;17.15;7.70;;;;;;;16.58;100.00;95016.66;5046541;28;20391;-79
2022/06/22 03:43:36;;;;;;;21.65;9.20;;;;;;;16.63;100.00;95019.13;5044745;28;20103;-80
2022/06/22 03:46:27;;;;;;;19.45;8.90;;;;;;;16.56;100.00;95029.47;5066537;28;20044;-80
2022/06/22 03:49:02;;;;;;;17.63;8.50;;;;;;;16.66;100.00;95039.75;5043617;28;20040;-80
2022/06/22 03:51:37;;;;;;;16.27;7.95;;;;;;;16.70;100.00;95034.56;5033944;28;20095;-80
2022/06/22 03:54:09;;;;;;;19.08;7.85;;;;;;;16.75;100.00;95045.81;5052704;28;20549;-80
2022/06/22 03:56:44;;;;;;;17.10;7.72;;;;;;;16.86;100.00;95042.78;5055994;28;20037;-80
2022/06/22 03:59:10;;;;;;;12.75;7.28;;;;;;;16.81;100.00;95035.78;5041230;28;20037;-79
2022/06/22 04:01:36;;;;;;;15.00;7.72;;;;;;;16.75;100.00;95027.22;5046995;28;20067;-80
2022/06/22 04:04:03;;;;;;;16.23;7.38;;;;;;;16.80;100.00;95019.03;5033397;28;20067;-79
2022/06/22 04:06:38;;;;;;;15.10;7.85;;;;;;;16.77;100.00;95025.00;5034087;28;20498;-79
2022/06/22 04:09:10;;;;;;;18.17;8.10;;;;;;;16.77;100.00;95014.38;5031309;28;20448;-80
2022/06/22 04:11:46;;;;;;;19.95;8.00;;;;;;;16.63;100.00;95019.13;5045790;28;20052;-79
2022/06/22 04:14:24;;;;;;;18.30;7.95;;;;;;;16.74;100.00;95022.97;5045253;28;20033;-79
2022/06/22 04:16:55;;;;;;;13.57;8.45;;;;;;;16.80;100.00;95032.31;5052269;28;20056;-79
2022/06/22 04:19:36;;;;;;;14.73;7.97;;;;;;;16.78;100.00;95036.41;5032828;28;20579;-79
2022/06/22 04:22:18;;;;;;;15.32;7.70;;;;;;;16.80;100.00;95040.28;5045219;28;20041;-78
2022/06/22 04:24:52;;;;;;;19.30;8.55;;;;;;;16.95;100.00;95044.31;5049594;28;20040;-80
2022/06/22 04:27:31;;;;;;;17.80;8.35;;;;;;;17.01;100.00;95039.63;5028337;28;20060;-79
2022/06/22 04:30:20;;;;;;;24.13;9.00;;;;;;;17.08;100.00;95039.88;5051527;28;20059;-79
2022/06/22 04:33:07;;;;;;;16.27;7.63;;;;;;;17.18;100.00;95038.69;5051730;28;20033;-79
2022/06/22 04:35:51;;;;;;;15.05;7.63;;;;;;;17.04;100.00;95028.34;5033038;28;20051;-79
2022/06/22 04:38:26;;;;;;;20.48;7.43;;;;;;;17.11;100.00;95033.91;5033657;28;20423;-79
2022/06/22 04:41:29;;;;;;;21.13;7.70;;;;;;;17.33;100.00;95034.72;5033385;28;20052;-80
2022/06/22 04:44:00;;;;;;;19.58;8.18;;;;;;;17.39;100.00;95033.41;5022855;28;20053;-78
2022/06/22 04:46:31;;;;;;;14.82;7.68;;;;;;;17.38;100.00;95031.84;5039350;28;20041;-79
2022/06/22 04:49:05;;;;;;;16.77;7.30;;;;;;;17.67;100.00;95038.22;5035308;28;20037;-79
2022/06/22 04:51:35;;;;;;;16.20;6.97;;;;;;;17.64;100.00;95039.66;5061279;28;20045;-79
2022/06/22 04:54:05;;;;;;;17.73;7.30;;;;;;;17.77;100.00;95045.78;5054743;28;20351;-79
2022/06/22 04:56:38;;;;;;;18.95;7.15;;;;;;;17.86;100.00;95050.25;5064549;28;20053;-79
2022/06/22 04:59:06;;;;;;;17.85;7.88;;;;;;;17.72;100.00;95058.53;5054410;28;20041;-78
2022/06/22 05:01:43;;;;;;;16.58;7.22;;;;;;;17.91;100.00;95052.75;5054291;28;20041;-79
2022/06/22 05:04:26;;;;;;;12.73;6.43;;;;;;;18.06;100.00;95065.47;5056341;28;20048;-79
2022/06/22 05:07:25;;;;;;;17.55;6.88;;;;;;;18.09;100.00;95064.78;5033865;28;20638;-80
2022/06/22 05:09:57;;;;;;;18.35;7.15;;;;;;;18.07;100.00;95074.97;5048108;28;20042;-80
2022/06/22 05:12:27;;;;;;;18.55;6.38;;;;;;;18.18;100.00;95067.38;5058024;28;20063;-79
2022/06/22 05:14:56;;;;;;;13.73;6.15;;;;;;;18.16;100.00;95070.38;5060934;28;20052;-80
2022/06/22 05:17:30;;;;;;;18.60;6.80;;;;;;;18.34;100.00;95075.50;5063041;28;20044;-80
2022/06/22 05:20:34;;;;;;;21.00;7.05;;;;;;;18.30;100.00;95074.59;5054539;28;20414;-79
2022/06/22 05:23:02;;;;;;;17.50;7.25;;;;;;;18.24;100.00;95070.59;5035784;28;20124;-80
2022/06/22 05:25:29;;;;;;;20.75;7.28;;;;;;;18.20;100.00;95064.38;5054592;28;20064;-80
2022/06/22 05:28:04;;;;;;;21.08;8.05;;;;;;;18.18;100.00;95057.47;5047837;28;20068;-81
2022/06/22 05:30:40;;;;;;;15.88;6.93;;;;;;;18.35;100.00;95061.09;5035712;28;20132;-78
2022/06/22 05:33:10;;;;;;;14.48;6.72;;;;;;;18.33;100.00;95053.44;5058165;28;20052;-79
2022/06/22 05:35:47;;;;;;;12.73;6.35;;;;;;;18.32;100.00;95056.44;5031553;28;20094;-80
2022/06/22 05:38:15;;;;;;;19.52;6.50;;;;;;;18.37;100.00;95052.78;5067172;28;20032;-80
2022/06/22 05:40:43;;;;;;;15.98;7.80;;;;;;;18.57;100.00;95045.81;5031145;28;20045;-79
2022/06/22 05:43:09;;;;;;;17.90;7.80;;;;;;;18.60;100.00;95039.81;5048826;28;20045;-79
2022/06/22 05:45:43;;;;;;;18.92;7.25;;;;;;;18.71;100.00;95032.94;5052210;28;20048;-80
2022/06/22 05:48:17;;;;;;;16.55;6.75;;;;;;;18.77;100.00;95028.16;5035069;28;20037;-79
2022/06/22 05:50:53;;;;;;;20.42;6.80;;;;;;;18.86;100.00;95026.16;5063351;28;20048;-79
2022/06/22 05:53:32;;;;;;;22.38;6.57;;;;;;;18.89;100.00;95024.75;5059224;28;20041;-79
2022/06/22 05:56:25;;;;;;;18.70;6.50;;;;;;;18.91;100.00;95027.88;5036420;28;20037;-80
2022/06/22 05:59:00;;;;;;;25.23;6.65;;;;;;;18.96;100.00;95023.06;5045749;28;20098;-79
2022/06/22 06:01:41;;;;;;;13.70;6.50;;;;;;;19.00;100.00;95026.63;5058423;28;20428;-81
2022/06/22 06:04:28;;;;;;;17.73;6.53;;;;;;;19.14;100.00;95030.84;5043348;28;20128;-79
2022/06/22 06:07:00;;;;;;;23.27;7.18;;;;;;;19.36;100.00;95037.56;5063547;28;20495;-79
2022/06/22 06:09:27;;;;;;;24.25;6.32;;;;;;;19.48;100.00;95032.22;5045549;28;20496;-80
2022/06/22 06:12:13;;;;;;;20.33;6.90;;;;;;;19.58;100.00;95032.84;5060726;28;20052;-77
2022/06/22 06:14:41;;;;;;;21.52;6.07;;;;;;;19.64;100.00;95037.63;5041068;28;20052;-80
2022/06/22 06:17:24;;;;;;;16.58;5.47;;;;;;;19.72;100.00;95038.59;5071072;28;20090;-78
2022/06/22 06:19:52;;;;;;;15.73;5.32;;;;;;;19.76;100.00;95042.13;5050646;28;20044;-77
2022/06/22 06:22:21;;;;;;;23.33;5.55;;;;;;;19.93;100.00;95048.34;5063633;28;20457;-76
2022/06/22 06:28:04;;;;;;;18.40;5.72;;;;;;;20.08;100.00;95055.59;5018708;28;20076;-78
2022/06/22 06:30:36;;;;;;;18.77;5.70;;;;;;;20.03;100.00;95059.28;5013601;28;20049;-78
2022/06/22 06:33:10;;;;;;;21.63;5.78;;;;;;;20.00;100.00;95064.56;5037686;28;20053;-79
2022/06/22 06:35:47;;;;;;;24.33;6.38;;;;;;;20.18;100.00;95081.81;5039315;28;20071;-77
2022/06/22 06:38:42;;;;;;;16.25;5.47;;;;;;;20.29;100.00;95082.09;5059791;28;20048;-78
2022/06/22 06:41:07;;;;;;;29.27;6.05;;;;;;;20.09;100.00;95086.53;5049370;28;20041;-77
2022/06/22 06:43:47;;;;;;;20.75;6.13;;;;;;;20.25;97.54;95082.00;5062453;28;20483;-79
2022/06/22 06:46:23;;;;;;;24.50;5.63;;;;;;;20.11;99.79;95092.31;5040489;28;20040;-77
2022/06/22 06:48:57;;;;;;;21.50;5.28;;;;;;;20.20;99.38;95079.59;5063400;28;20075;-77
2022/06/22 06:51:25;;;;;;;21.13;6.00;;;;;;;20.05;100.00;95075.75;5058331;28;20047;-77
2022/06/22 06:54:16;;;;;;;21.88;6.07;;;;;;;19.97;100.00;95076.69;5054313;28;20510;-77
2022/06/22 06:56:54;;;;;;;16.42;5.63;;;;;;;20.09;100.00;95081.19;5053408;28;20056;-79
2022/06/22 06:59:24;;;;;;;22.73;7.20;;;;;;;20.05;100.00;95077.66;5051914;28;20037;-80
2022/06/22 07:01:50;;;;;;;21.77;6.40;;;;;;;20.02;100.00;95078.34;5055846;28;20041;-80
2022/06/22 07:04:29;;;;;;;23.75;6.03;;;;;;;20.13;100.00;95079.41;5053389;28;20037;-79
2022/06/22 07:07:00;;;;;;;21.42;6.68;;;;;;;20.17;100.00;95087.50;5052762;28;20041;-81
2022/06/22 07:09:31;;;;;;;21.70;6.10;;;;;;;20.07;100.00;95076.19;5029766;28;20044;-80
2022/06/22 07:12:42;;;;;;;28.33;6.95;;;;;;;20.11;100.00;95086.97;5055153;28;20041;-81
2022/06/22 07:15:16;;;;;;;25.45;6.72;;;;;;;20.10;100.00;95077.41;5042259;28;20517;-80
2022/06/22 07:17:45;;;;;;;18.52;6.75;;;;;;;20.21;100.00;95091.84;5056585;28;20076;-77
2022/06/22 07:20:23;;;;;;;22.70;6.50;;;;;;;20.14;100.00;95086.31;5056762;28;20037;-78
2022/06/22 07:23:02;;;;;;;19.38;6.45;;;;;;;20.19;100.00;95094.06;5052441;28;20052;-79
2022/06/22 07:25:38;;;;;;;20.08;6.03;;;;;;;20.20;100.00;95092.94;5052574;28;20054;-79
2022/06/22 07:28:29;;;;;;;17.60;5.97;;;;;;;20.25;100.00;95103.38;5053989;28;20067;-80
2022/06/22 07:30:59;;;;;;;27.75;6.72;;;;;;;20.23;100.00;95100.28;5049381;28;20644;-80
2022/06/22 07:33:42;;;;;;;20.05;6.40;;;;;;;20.22;100.00;95098.72;5055628;28;20036;-80
2022/06/22 07:36:10;;;;;;;18.13;6.15;;;;;;;20.32;100.00;95107.38;5046664;28;20041;-79
2022/06/22 07:38:52;;;;;;;20.02;5.88;;;;;;;20.22;100.00;95114.75;5037166;28;20045;-79
2022/06/22 07:41:22;;;;;;;26.45;6.70;;;;;;;20.42;100.00;95122.91;5064858;28;20110;-80
2022/06/22 07:44:13;;;;;;;21.90;5.97;;;;;;;20.53;100.00;95118.63;5069759;28;20433;-78
2022/06/22 07:47:36;;;;;;;28.35;7.18;;;;;;;20.52;100.00;95117.06;5061914;28;20041;-78
2022/06/22 07:50:14;;;;;;;26.02;6.47;;;;;;;20.54;100.00;95111.38;4960226;28;20308;-79
2022/06/22 07:52:44;;;;;;;25.40;6.93;;;;;;;20.73;100.00;95110.72;5045628;28;20052;-79
2022/06/22 07:55:32;;;;;;;21.80;6.70;;;;;;;20.80;100.00;95100.19;5051182;28;20044;-78
2022/06/22 07:58:30;;;;;;;21.40;6.15;;;;;;;20.96;100.00;95102.91;5029873;28;20112;-79
2022/06/22 08:01:05;;;;;;;21.17;7.25;;;;;;;20.94;100.00;95111.22;5030158;28;20528;-79
2022/06/22 08:03:36;;;;;;;20.13;6.38;;;;;;;20.98;100.00;95111.34;5057241;28;20044;-80
2022/06/22 08:06:07;;;;;;;22.20;6.38;;;;;;;21.20;96.64;95112.59;5053608;28;20521;-79
2022/06/22 08:08:54;;;;;;;21.42;6.70;;;;;;;21.27;95.21;95123.47;5055350;28;20041;-79
2022/06/22 08:11:28;;;;;;;21.23;5.95;;;;;;;21.26;95.28;95111.22;5031382;28;20037;-78
2022/06/22 08:14:13;;;;;;;22.73;6.28;;;;;;;21.27;93.72;95112.78;5042830;28;20040;-76
2022/06/22 08:16:51;;;;;;;30.42;6.57;;;;;;;21.29;92.33;95115.88;5033419;28;20044;-77
2022/06/22 08:19:17;;;;;;;20.60;6.60;;;;;;;21.33;89.44;95115.19;5048606;28;20048;-81
2022/06/22 08:21:49;;;;;;;21.52;6.07;;;;;;;21.41;90.62;95117.69;5049989;28;20060;-80
2022/06/22 08:24:18;;;;;;;20.30;6.47;;;;;;;21.41;91.93;95127.63;5029705;28;20045;-77
2022/06/22 08:26:45;;;;;;;24.05;7.00;;;;;;;21.42;93.43;95129.16;5047866;28;20415;-79
2022/06/22 08:29:13;;;;;;;19.45;6.30;;;;;;;21.38;89.96;95117.59;5049350;28;20048;-79
2022/06/22 08:31:46;;;;;;;25.88;6.30;;;;;;;21.42;90.05;95118.44;5049184;28;20041;-79
2022/06/22 08:34:16;;;;;;;24.83;6.63;;;;;;;21.38;91.77;95122.97;5047164;28;20220;-78
2022/06/22 08:36:51;;;;;;;25.05;6.80;;;;;;;21.41;92.78;95132.97;5057074;28;20049;-77
2022/06/22 08:39:27;;;;;;;23.17;6.57;;;;;;;21.34;92.15;95133.56;5049145;28;20509;-81
2022/06/22 08:42:24;;;;;;;25.33;6.65;;;;;;;21.33;95.47;95131.25;5049669;28;20036;-78
2022/06/22 08:45:18;;;;;;;23.27;7.15;;;;;;;21.43;92.88;95139.53;5062472;28;20040;-78
2022/06/22 08:47:52;;;;;;;30.25;7.03;;;;;;;21.47;90.65;95142.28;5049510;28;20045;-77
2022/06/22 08:50:49;;;;;;;26.42;7.18;;;;;;;21.36;92.37;95139.34;5046984;28;20040;-82
2022/06/22 08:53:26;;;;;;;28.15;7.35;;;;;;;21.45;93.93;95149.88;5037244;28;20045;-76
2022/06/22 08:56:16;;;;;;;20.42;6.65;;;;;;;21.38;94.72;95149.72;5050457;28;20051;-76
2022/06/22 08:59:03;;;;;;;24.23;8.02;;;;;;;21.36;95.86;95143.94;5064154;28;20037;-84
2022/06/22 09:02:07;;;;;;;27.25;7.60;;;;;;;21.36;96.24;95151.97;5054060;28;20052;-82
2022/06/22 09:05:10;;;;;;;21.30;6.60;;;;;;;21.40;96.85;95158.16;5029066;28;20446;-79
2022/06/22 09:08:02;;;;;;;20.23;6.30;;;;;;;21.68;93.87;95146.56;5044508;28;20045;-79
2022/06/22 09:10:58;;;;;;;28.35;6.50;;;;;;;21.77;90.78;95149.84;5024363;28;20057;-78
2022/06/22 09:13:39;;;;;;;18.25;6.72;;;;;;;21.82;92.40;95141.53;5050056;28;20533;-78
2022/06/22 09:16:31;;;;;;;20.15;7.03;;;;;;;21.97;92.35;95148.72;5057776;28;20047;-80
2022/06/22 09:19:42;;;;;;;23.45;7.28;;;;;;;22.02;91.32;95144.22;5016291;28;20045;-79
2022/06/22 09:22:29;;;;;;;21.13;7.07;;;;;;;22.12;90.57;95149.03;5058201;28;20045;-79
2022/06/22 09:25:07;;;;;;;26.85;7.60;;;;;;;22.22;88.48;95143.09;5057157;28;20078;-78
2022/06/22 09:27:43;;;;;;;30.25;8.50;;;;;;;22.19;87.74;95138.44;5060664;28;20048;-79
2022/06/22 09:30:17;;;;;;;22.08;8.40;;;;;;;22.22;85.74;95132.38;5037634;28;20082;-80
2022/06/22 09:32:45;;;;;;;19.55;7.75;;;;;;;22.27;84.12;95140.13;5056874;28;20498;-79
2022/06/22 09:35:40;;;;;;;23.48;7.93;;;;;;;22.35;84.00;95124.22;5065232;28;20041;-80
2022/06/22 09:38:30;;;;;;;25.13;8.10;;;;;;;22.21;85.83;95120.13;5012377;28;20065;-79
2022/06/22 09:41:08;;;;;;;27.10;8.07;;;;;;;22.60;84.33;95114.72;5047032;28;20052;-79
2022/06/22 09:43:51;;;;;;;22.77;7.82;;;;;;;22.64;83.52;95120.94;5046848;28;20111;-79
2022/06/22 09:46:36;;;;;;;28.40;8.07;;;;;;;22.41;83.81;95128.16;5032114;28;20469;-78
2022/06/22 09:49:24;;;;;;;22.27;7.97;;;;;;;22.75;81.23;95125.72;5052200;28;20139;-78
2022/06/22 09:52:01;;;;;;;21.27;7.68;;;;;;;22.62;81.50;95122.41;5047645;28;20070;-78
2022/06/22 09:57:44;;;;;;;28.40;7.90;;;;;;;22.47;82.58;95121.41;5048786;28;20483;-78
2022/06/22 10:00:39;;;;;;;18.83;8.07;;;;;;;22.59;83.26;95123.91;5048746;28;20037;-78
2022/06/22 10:03:28;;;;;;;25.88;8.48;;;;;;;22.61;82.62;95116.28;5017336;28;20068;-80
2022/06/22 10:06:06;;;;;;;18.77;8.07;;;;;;;22.55;82.51;95117.69;5030901;28;20132;-80
2022/06/22 10:08:46;;;;;;;23.58;8.55;;;;;;;22.58;82.72;95114.28;5047065;28;20048;-80
2022/06/22 10:11:44;;;;;;;25.80;8.50;;;;;;;22.91;82.37;95110.25;5047907;28;20112;-79
2022/06/22 10:14:22;;;;;;;23.10;8.55;;;;;;;23.31;80.42;95114.34;5032076;28;20041;-79
2022/06/22 10:16:59;;;;;;;21.23;7.13;;;;;;;23.44;81.04;95111.47;5033111;28;20063;-80
2022/06/22 10:19:46;;;;;;;21.52;7.70;;;;;;;23.30;81.69;95102.09;5046038;28;20048;-79
2022/06/22 10:22:37;;;;;;;23.42;8.15;;;;;;;23.46;81.71;95101.13;5050140;28;20525;-80
2022/06/22 10:25:28;;;;;;;23.55;8.52;;;;;;;23.34;82.18;95113.63;5051957;28;20453;-79
2022/06/22 10:28:09;;;;;;;25.33;9.18;;;;;;;23.30;80.87;95106.66;5047643;28;20117;-79
2022/06/22 10:30:44;;;;;;;18.10;7.70;;;;;;;23.25;80.96;95121.16;5046296;28;20037;-82
2022/06/22 10:33:27;;;;;;;24.35;8.20;;;;;;;23.09;82.85;95123.22;5054316;28;20044;-77
2022/06/22 10:36:17;;;;;;;26.48;7.97;;;;;;;23.10;85.32;95138.16;5041019;28;20059;-76
2022/06/22 10:39:11;;;;;;;27.35;8.50;;;;;;;23.17;85.15;95146.34;5051540;28;20041;-79
2022/06/22 10:45:12;;;;;;;33.63;9.23;;;;;;;23.30;82.07;95139.66;5055743;28;20048;-79
2022/06/22 10:47:43;;;;;;;24.80;8.55;;;;;;;23.15;82.23;95137.91;5068503;28;20048;-79
2022/06/22 10:50:22;;;;;;;27.58;8.90;;;;;;;22.96;83.10;95139.47;5032321;28;20112;-79
2022/06/22 10:53:26;;;;;;;20.85;8.45;;;;;;;22.99;84.94;95136.06;5050628;28;20044;-78
2022/06/22 10:56:15;;;;;;;25.23;8.68;;;;;;;22.78;84.01;95139.16;5053979;28;20087;-79
2022/06/22 10:59:06;;;;;;;26.23;8.80;;;;;;;22.69;86.88;95127.91;5052084;28;20386;-78
2022/06/22 11:01:46;;;;;;;24.67;9.20;;;;;;;22.60;86.88;95128.13;5052610;28;20053;-80
2022/06/22 11:04:39;;;;;;;25.52;8.85;;;;;;;22.53;89.24;95136.06;5053636;28;20052;-78
2022/06/22 11:07:44;;;;;;;22.05;9.13;;;;;;;22.45;87.58;95124.41;5045763;28;20041;-80
2022/06/22 11:10:32;;;;;;;23.13;8.63;;;;;;;22.29;87.70;95132.50;5052251;28;20036;-77
2022/06/22 11:13:17;;;;;;;27.63;9.55;;;;;;;22.27;87.51;95123.28;5049615;28;20033;-77
2022/06/22 11:16:22;;;;;;;30.45;10.20;;;;;;;22.52;88.41;95129.13;5055875;28;20036;-79
2022/06/22 11:19:20;;;;;;;25.33;8.90;;;;;;;22.48;88.22;95133.66;5047707;28;20048;-78
2022/06/22 11:22:08;;;;;;;20.58;8.95;;;;;;;22.45;89.41;95134.38;5004194;28;20053;-77
2022/06/22 11:24:47;;;;;;;23.23;8.90;;;;;;;22.46;89.24;95135.94;5044537;28;20103;-77
2022/06/22 11:33:11;;;;;;;29.23;8.63;;;;;;;22.26;94.42;95143.94;5048430;28;20041;-81
2022/06/22 11:36:13;;;;;;;22.08;9.15;;;;;;;22.26;91.87;95143.94;5047893;28;20033;-81
2022/06/22 11:38:54;;;;;;;27.17;9.52;;;;;;;22.42;90.59;95151.16;5032579;28;20443;-80
2022/06/22 11:41:39;;;;;;;28.90;10.07;;;;;;;22.46;90.96;95154.69;5054642;28;20041;-80
2022/06/22 11:48:06;;;;;;;25.38;10.77;;;;;;;22.49;89.85;95156.66;5040555;28;20068;-80
2022/06/22 11:51:05;;;;;;;23.58;10.27;;;;;;;22.63;88.94;95162.28;5019748;28;20103;-80
2022/06/22 11:53:46;;;;;;;26.63;10.40;;;;;;;22.43;88.47;95152.72;5055003;28;20044;-80
2022/06/22 11:56:35;;;;;;;25.10;10.43;;;;;;;22.69;87.64;95149.38;5062221;28;20056;-79
2022/06/22 11:59:16;;;;;;;24.13;10.18;;;;;;;22.60;87.94;95152.28;5052261;28;20044;-80
2022/06/22 12:02:13;;;;;;;22.60;9.90;;;;;;;22.87;87.86;95159.63;5054764;28;20044;-80
2022/06/22 12:04:49;;;;;;;24.55;10.27;;;;;;;23.06;88.64;95161.47;5009849;28;20053;-79
2022/06/22 12:07:33;;;;;;;33.92;10.95;;;;;;;23.07;87.64;95161.09;5045984;28;20040;-83
2022/06/22 12:10:28;;;;;;;31.83;11.07;;;;;;;23.08;85.80;95164.59;5047691;28;20070;-80
2022/06/22 12:13:32;;;;;;;33.85;11.98;;;;;;;23.41;84.42;95163.22;5028044;28;20048;-79
2022/06/22 12:16:22;;;;;;;24.42;9.45;;;;;;;23.35;82.38;95174.25;5024700;28;20072;-79
2022/06/22 12:19:02;;;;;;;20.58;8.82;;;;;;;23.42;78.99;95167.44;5030531;28;20048;-79
2022/06/22 12:21:36;;;;;;;24.30;8.85;;;;;;;23.41;79.54;95171.28;5023935;28;20037;-80
2022/06/22 12:24:08;;;;;;;;;;;;;;;23.39;79.57;95173.53;5033804;28;20041;-79
2022/06/22 12:27:07;;;;;;;23.48;8.48;;;;;;;23.44;78.97;95165.94;5034643;28;19947;-79
2022/06/22 12:29:39;;;;;;;26.48;8.77;;;;;;;22.69;79.95;95168.13;5037523;28;20037;-78
2022/06/22 12:32:27;;;;;;;31.88;8.35;;;;;;;23.07;80.89;95168.41;5048411;28;20036;-79
2022/06/22 12:35:16;;;;;;;23.23;7.97;;;;;;;23.18;80.25;95164.00;5046182;28;20041;-78